createdAt,value
2022-11-23T00:01:44.166Z,7.61
2022-11-23T00:03:49.210Z,7.43
2022-11-23T00:05:51.939Z,7.34
2022-11-23T00:07:55.002Z,8.05
2022-11-23T00:09:57.771Z,9.13
2022-11-23T00:12:00.603Z,9.45
2022-11-23T00:14:03.743Z,8.54
2022-11-23T00:16:07.512Z,7.32
2022-11-23T00:18:10.268Z,6.25
2022-11-23T00:20:13.084Z,5.43
2022-11-23T00:22:15.880Z,4.89
2022-11-23T00:24:18.657Z,5.44
2022-11-23T00:26:21.935Z,6.47
2022-11-23T00:28:24.750Z,7.09
2022-11-23T00:30:29.031Z,7.25
2022-11-23T00:32:31.961Z,7.55
2022-11-23T00:34:34.698Z,7.62
2022-11-23T00:36:37.492Z,7.73
2022-11-23T00:38:41.331Z,7.87
2022-11-23T00:40:44.109Z,7.73
2022-11-23T00:42:46.924Z,6.95
2022-11-23T00:44:49.667Z,6.05
2022-11-23T00:46:52.503Z,5.28
2022-11-23T00:48:57.497Z,4.69
2022-11-23T00:51:02.729Z,4.49
2022-11-23T00:53:05.500Z,5.32
2022-11-23T00:55:08.707Z,5.80
2022-11-23T00:57:11.502Z,6.04
2022-11-23T00:59:14.207Z,6.10
2022-11-23T01:01:34.629Z,5.91
2022-11-23T01:03:40.519Z,5.30
2022-11-23T01:05:43.421Z,4.59
2022-11-23T01:07:46.338Z,4.22
2022-11-23T01:09:49.217Z,4.64
2022-11-23T01:11:53.775Z,5.39
2022-11-23T01:13:56.520Z,6.27
2022-11-23T01:16:00.136Z,7.28
2022-11-23T01:18:02.902Z,7.77
2022-11-23T01:20:06.463Z,7.14
2022-11-23T01:22:09.293Z,6.17
2022-11-23T01:24:15.349Z,5.38
2022-11-23T01:26:18.241Z,4.74
2022-11-23T01:28:21.012Z,4.25
2022-11-23T01:30:23.732Z,4.04
2022-11-23T01:32:26.809Z,4.98
2022-11-23T01:34:29.607Z,6.33
2022-11-23T01:36:34.676Z,7.29
2022-11-23T01:38:37.536Z,7.60
2022-11-23T01:40:42.113Z,6.85
2022-11-23T01:42:54.026Z,5.91
2022-11-23T01:45:35.403Z,5.13
2022-11-23T01:47:38.222Z,4.38
2022-11-23T01:49:46.396Z,4.02
2022-11-23T01:51:53.386Z,4.77
2022-11-23T01:54:00.932Z,6.35
2022-11-23T01:56:07.249Z,7.49
2022-11-23T01:58:13.075Z,7.99
2022-11-23T02:00:16.842Z,7.25
2022-11-23T02:02:19.640Z,6.22
2022-11-23T02:04:27.123Z,5.36
2022-11-23T02:06:31.836Z,4.69
2022-11-23T02:08:35.119Z,4.83
2022-11-23T02:10:38.267Z,5.95
2022-11-23T02:12:41.214Z,6.85
2022-11-23T02:14:44.858Z,7.40
2022-11-23T02:16:47.638Z,8.00
2022-11-23T02:18:52.015Z,8.20
2022-11-23T02:20:56.831Z,7.29
2022-11-23T02:23:16.793Z,6.20
2022-11-23T02:25:32.945Z,5.23
2022-11-23T02:27:35.754Z,4.86
2022-11-23T02:29:39.673Z,5.86
2022-11-23T02:31:42.450Z,7.23
2022-11-23T02:33:45.327Z,8.40
2022-11-23T02:35:50.323Z,7.89
2022-11-23T02:37:53.802Z,6.65
2022-11-23T02:39:58.626Z,5.52
2022-11-23T02:42:01.491Z,4.94
2022-11-23T02:44:07.376Z,5.96
2022-11-23T02:46:10.579Z,7.12
2022-11-23T02:48:13.539Z,7.74
2022-11-23T02:50:16.550Z,8.24
2022-11-23T02:52:19.537Z,7.45
2022-11-23T02:54:22.338Z,6.27
2022-11-23T02:56:25.114Z,5.28
2022-11-23T02:58:27.871Z,4.80
2022-11-23T03:00:30.840Z,5.85
2022-11-23T03:02:33.662Z,7.24
2022-11-23T03:04:36.479Z,8.27
2022-11-23T03:06:39.262Z,8.49
2022-11-23T03:08:42.026Z,7.45
2022-11-23T03:10:44.759Z,6.26
2022-11-23T03:12:47.990Z,5.28
2022-11-23T03:14:50.842Z,4.79
2022-11-23T03:16:53.674Z,5.81
2022-11-23T03:18:56.670Z,6.69
2022-11-23T03:21:07.111Z,6.81
2022-11-23T03:23:09.952Z,6.85
2022-11-23T03:25:12.791Z,6.87
2022-11-23T03:27:15.785Z,6.23
2022-11-23T03:29:18.613Z,5.28
2022-11-23T03:31:22.014Z,4.65
2022-11-23T03:33:24.793Z,5.07
2022-11-23T03:35:27.714Z,6.14
2022-11-23T03:37:30.455Z,7.27
2022-11-23T03:39:33.523Z,7.61
2022-11-23T03:41:36.653Z,6.60
2022-11-23T03:43:39.458Z,5.37
2022-11-23T03:45:42.866Z,4.78
2022-11-23T03:47:45.661Z,5.91
2022-11-23T03:49:48.631Z,7.24
2022-11-23T03:51:51.414Z,7.12
2022-11-23T03:53:54.182Z,5.84
2022-11-23T03:55:58.271Z,4.61
2022-11-23T03:58:01.543Z,4.07
2022-11-23T04:00:05.284Z,5.27
2022-11-23T04:02:08.487Z,6.48
2022-11-23T04:04:11.275Z,6.59
2022-11-23T04:06:14.140Z,6.12
2022-11-23T04:08:17.140Z,5.12
2022-11-23T04:10:20.571Z,4.63
2022-11-23T04:12:23.429Z,5.74
2022-11-23T04:14:26.177Z,6.80
2022-11-23T04:16:28.958Z,7.16
2022-11-23T04:18:31.735Z,6.60
2022-11-23T04:20:34.764Z,5.31
2022-11-23T04:22:37.610Z,4.34
2022-11-23T04:24:40.443Z,3.93
2022-11-23T04:26:43.333Z,5.12
2022-11-23T04:28:46.243Z,6.61
2022-11-23T04:30:49.023Z,7.76
2022-11-23T04:32:51.865Z,8.06
2022-11-23T04:34:54.680Z,6.99
2022-11-23T04:36:57.567Z,5.76
2022-11-23T04:39:00.700Z,4.81
2022-11-23T04:41:03.587Z,4.39
2022-11-23T04:43:06.678Z,5.50
2022-11-23T04:45:11.421Z,6.99
2022-11-23T04:47:14.335Z,7.44
2022-11-23T04:49:17.210Z,6.54
2022-11-23T04:51:20.046Z,5.35
2022-11-23T04:53:22.831Z,4.41
2022-11-23T04:55:26.156Z,4.39
2022-11-23T04:57:29.040Z,5.34
2022-11-23T04:59:32.464Z,6.03
2022-11-23T05:01:35.572Z,6.99
2022-11-23T05:03:38.471Z,7.59
2022-11-23T05:05:41.688Z,6.77
2022-11-23T05:07:44.555Z,5.54
2022-11-23T05:09:48.022Z,4.70
2022-11-23T05:11:50.901Z,5.71
2022-11-23T05:13:53.756Z,7.30
2022-11-23T05:15:56.558Z,7.42
2022-11-23T05:18:04.580Z,6.13
2022-11-23T05:20:07.843Z,4.82
2022-11-23T05:22:10.807Z,4.90
2022-11-23T05:24:13.704Z,6.01
2022-11-23T05:26:16.643Z,7.34
2022-11-23T05:30:44.751Z,5.49
2022-11-23T05:32:47.762Z,4.29
2022-11-23T05:34:50.554Z,3.74
2022-11-23T05:36:53.534Z,4.71
2022-11-23T05:38:56.328Z,6.19
2022-11-23T05:40:59.103Z,7.11
2022-11-23T05:43:02.015Z,7.67
2022-11-23T05:45:10.014Z,7.64
2022-11-23T05:47:14.450Z,6.45
2022-11-23T05:49:17.330Z,5.20
2022-11-23T05:51:20.064Z,4.36
2022-11-23T05:53:22.880Z,5.20
2022-11-23T05:55:26.464Z,6.25
2022-11-23T05:57:29.266Z,6.88
2022-11-23T05:59:32.291Z,7.10
2022-11-23T06:01:35.225Z,7.48
2022-11-23T06:03:38.322Z,7.28
2022-11-23T06:05:41.190Z,6.21
2022-11-23T06:07:44.071Z,5.18
2022-11-23T06:09:47.056Z,5.01
2022-11-23T06:11:49.971Z,6.25
2022-11-23T06:13:52.778Z,7.72
2022-11-23T06:15:55.530Z,7.44
2022-11-23T06:18:02.070Z,6.15
2022-11-23T06:20:07.097Z,4.95
2022-11-23T06:22:09.941Z,4.38
2022-11-23T06:24:12.720Z,5.08
2022-11-23T06:26:15.976Z,5.77
2022-11-23T06:28:18.871Z,6.66
2022-11-23T06:30:21.799Z,7.30
2022-11-23T06:32:24.572Z,7.46
2022-11-23T06:34:27.321Z,6.54
2022-11-23T06:36:30.223Z,5.41
2022-11-23T06:38:33.379Z,4.73
2022-11-23T06:40:36.221Z,5.17
2022-11-23T06:42:40.193Z,6.11
2022-11-23T06:44:43.286Z,6.99
2022-11-23T06:46:46.134Z,8.14
2022-11-23T06:48:49.100Z,8.52
2022-11-23T06:50:52.199Z,7.44
2022-11-23T06:52:56.473Z,6.16
2022-11-23T06:54:59.307Z,5.08
2022-11-23T06:57:02.064Z,4.54
2022-11-23T06:59:05.091Z,5.22
2022-11-23T07:01:09.263Z,6.28
2022-11-23T07:03:20.323Z,7.50
2022-11-23T07:05:24.519Z,7.99
2022-11-23T07:07:28.080Z,7.01
2022-11-23T07:09:31.149Z,5.80
2022-11-23T07:11:34.099Z,5.13
2022-11-23T07:13:37.637Z,6.00
2022-11-23T07:15:41.663Z,7.28
2022-11-23T07:17:44.731Z,8.21
2022-11-23T07:19:47.566Z,8.20
2022-11-23T07:21:50.426Z,7.25
2022-11-23T07:23:53.543Z,6.01
2022-11-23T07:25:56.343Z,5.09
2022-11-23T07:28:00.688Z,4.61
2022-11-23T07:30:03.699Z,5.42
2022-11-23T07:32:08.562Z,6.98
2022-11-23T07:34:11.404Z,8.31
2022-11-23T07:36:14.794Z,8.23
2022-11-23T07:38:17.791Z,7.07
2022-11-23T07:40:20.761Z,5.95
2022-11-23T07:42:44.566Z,5.38
2022-11-23T07:44:46.416Z,6.81
2022-11-23T07:46:49.255Z,8.31
2022-11-23T07:48:54.471Z,8.31
2022-11-23T07:50:57.369Z,7.04
2022-11-23T07:53:02.062Z,5.86
2022-11-23T07:55:05.988Z,5.41
2022-11-23T07:57:08.886Z,6.76
2022-11-23T07:59:11.706Z,7.99
2022-11-23T08:01:18.018Z,7.91
2022-11-23T08:03:29.129Z,6.68
2022-11-23T08:08:02.184Z,5.00
2022-11-23T08:10:04.203Z,6.05
2022-11-23T08:12:05.920Z,7.36
2022-11-23T08:14:07.366Z,8.09
2022-11-23T08:16:08.804Z,7.52
2022-11-23T08:18:25.619Z,6.29
2022-11-23T08:20:29.993Z,5.32
2022-11-23T08:22:32.795Z,5.03
2022-11-23T08:24:35.748Z,6.40
2022-11-23T08:26:38.698Z,7.82
2022-11-23T08:28:41.631Z,8.20
2022-11-23T08:30:44.701Z,7.19
2022-11-23T08:32:47.466Z,6.03
2022-11-23T08:34:50.416Z,5.30
2022-11-23T08:36:53.228Z,5.98
2022-11-23T08:38:56.055Z,7.25
2022-11-23T08:41:05.562Z,8.17
2022-11-23T08:43:08.654Z,8.15
2022-11-23T08:45:11.632Z,7.13
2022-11-23T08:47:14.446Z,6.06
2022-11-23T08:49:17.468Z,5.15
2022-11-23T08:51:22.904Z,4.98
2022-11-23T08:53:25.745Z,6.21
2022-11-23T08:55:29.430Z,7.29
2022-11-23T08:57:32.300Z,8.19
2022-11-23T08:59:35.053Z,7.68
2022-11-23T09:01:37.984Z,6.53
2022-11-23T09:03:41.682Z,5.54
2022-11-23T09:05:44.526Z,4.95
2022-11-23T09:07:47.412Z,5.25
2022-11-23T09:09:50.339Z,5.46
2022-11-23T09:11:53.970Z,5.59
2022-11-23T09:13:56.767Z,5.70
2022-11-23T09:16:01.134Z,6.10
2022-11-23T09:18:04.137Z,6.32
2022-11-23T09:20:07.669Z,6.44
2022-11-23T09:22:10.426Z,6.49
2022-11-23T09:24:13.612Z,6.48
2022-11-23T09:26:16.564Z,6.49
2022-11-23T09:28:19.839Z,6.62
2022-11-23T09:30:22.588Z,6.68
2022-11-23T09:32:25.438Z,6.56
2022-11-23T09:34:28.516Z,6.56
2022-11-23T09:36:31.458Z,6.67
2022-11-23T09:38:55.165Z,6.80
2022-11-23T09:41:25.269Z,6.69
2022-11-23T09:43:45.486Z,6.56
2022-11-23T09:45:53.004Z,6.59
2022-11-23T09:48:11.068Z,6.55
2022-11-23T09:50:52.680Z,6.55
2022-11-23T09:52:55.864Z,6.43
2022-11-23T09:55:03.771Z,6.59
2022-11-23T09:57:06.794Z,7.28
2022-11-23T09:59:21.509Z,8.14
2022-11-23T10:01:25.208Z,8.38
2022-11-23T10:03:29.715Z,7.50
2022-11-23T10:05:38.021Z,6.44
2022-11-23T10:08:00.562Z,5.57
2022-11-23T10:10:18.795Z,5.57
2022-11-23T10:12:34.722Z,6.65
2022-11-23T10:15:01.607Z,7.39
2022-11-23T10:17:36.016Z,7.33
2022-11-23T10:20:08.818Z,6.21
2022-11-23T10:22:22.724Z,5.15
2022-11-23T10:24:33.796Z,4.65
2022-11-23T10:26:41.678Z,4.66
2022-11-23T10:28:47.159Z,4.67
2022-11-23T10:31:14.086Z,4.66
2022-11-23T10:33:41.723Z,4.69
2022-11-23T10:35:44.478Z,4.75
2022-11-23T10:37:47.579Z,5.09
2022-11-23T10:39:50.364Z,5.29
2022-11-23T10:41:58.918Z,5.47
2022-11-23T10:44:16.084Z,5.55
2022-11-23T10:46:34.291Z,5.51
2022-11-23T10:48:37.593Z,5.84
2022-11-23T10:50:41.173Z,6.48
2022-11-23T10:52:50.783Z,7.38
2022-11-23T10:54:55.986Z,8.35
2022-11-23T10:57:01.432Z,7.55
2022-11-23T10:59:04.351Z,6.27
2022-11-23T11:01:13.997Z,5.41
2022-11-23T11:03:24.833Z,6.00
2022-11-23T11:07:55.129Z,8.29
2022-11-23T11:10:00.201Z,7.38
2022-11-23T11:12:03.103Z,6.27
2022-11-23T11:14:07.150Z,5.32
2022-11-23T11:16:22.405Z,5.07
2022-11-23T11:18:28.952Z,6.00
2022-11-23T11:20:34.829Z,6.76
2022-11-23T11:22:41.025Z,7.00
2022-11-23T11:24:46.885Z,6.73
2022-11-23T11:26:53.124Z,5.91
2022-11-23T11:29:01.073Z,5.11
2022-11-23T11:31:30.255Z,5.51
2022-11-23T11:33:51.833Z,6.05
2022-11-23T11:35:56.612Z,6.24
2022-11-23T11:38:25.218Z,6.44
2022-11-23T11:40:46.227Z,6.29
2022-11-23T11:43:16.090Z,6.14
2022-11-23T11:45:33.302Z,6.01
2022-11-23T11:47:47.968Z,6.02
2022-11-23T11:49:55.382Z,6.73
2022-11-23T11:52:09.488Z,7.38
2022-11-23T11:54:25.959Z,6.55
2022-11-23T11:56:39.641Z,5.27
2022-11-23T11:58:56.903Z,4.62
2022-11-23T12:01:22.197Z,5.56
2022-11-23T12:03:42.963Z,6.57
2022-11-23T12:05:52.220Z,7.43
2022-11-23T12:08:15.557Z,7.50
2022-11-23T12:10:27.325Z,6.23
2022-11-23T12:12:31.850Z,5.15
2022-11-23T12:14:36.934Z,4.86
2022-11-23T12:19:54.546Z,7.24
2022-11-23T12:22:00.085Z,7.18
2022-11-23T12:24:17.933Z,6.14
2022-11-23T12:26:26.538Z,5.06
2022-11-23T12:28:41.229Z,5.13
2022-11-23T12:30:51.758Z,5.99
2022-11-23T12:33:06.345Z,6.86
2022-11-23T12:35:13.516Z,7.05
2022-11-23T12:37:31.646Z,6.14
2022-11-23T12:39:59.538Z,5.19
2022-11-23T12:42:07.902Z,5.20
2022-11-23T12:47:32.692Z,6.67
2022-11-23T12:49:54.210Z,6.76
2022-11-23T12:51:59.577Z,5.80
2022-11-23T12:54:18.886Z,4.95
2022-11-23T12:56:33.129Z,5.01
2022-11-23T12:58:38.420Z,5.39
2022-11-23T13:01:08.053Z,5.75
2022-11-23T13:03:39.558Z,6.19
2022-11-23T13:06:11.658Z,6.67
2022-11-23T13:08:53.849Z,7.21
2022-11-23T13:11:11.942Z,6.10
2022-11-23T13:13:38.042Z,5.07
2022-11-23T13:15:57.006Z,5.22
2022-11-23T13:18:18.952Z,6.75
2022-11-23T13:20:41.750Z,7.03
2022-11-23T13:22:46.203Z,5.87
2022-11-23T13:25:23.333Z,4.90
2022-11-23T13:27:32.319Z,4.82
2022-11-23T13:29:58.717Z,5.63
2022-11-23T13:32:39.340Z,5.88
2022-11-23T13:34:48.874Z,5.81
2022-11-23T13:37:17.092Z,5.97
2022-11-23T13:39:56.382Z,6.08
2022-11-23T13:42:02.130Z,6.32
2022-11-23T13:44:28.097Z,6.60
2022-11-23T13:46:37.891Z,6.77
2022-11-23T13:49:01.331Z,7.79
2022-11-23T13:51:04.632Z,7.86
2022-11-23T13:53:23.704Z,6.63
2022-11-23T13:55:38.268Z,5.41
2022-11-23T13:57:43.438Z,4.68
2022-11-23T13:59:46.322Z,5.16
2022-11-23T14:02:07.849Z,5.54
2022-11-23T14:04:22.642Z,6.18
2022-11-23T14:06:51.374Z,7.56
2022-11-23T14:09:18.207Z,7.71
2022-11-23T14:11:23.572Z,6.29
2022-11-23T14:13:33.028Z,5.23
2022-11-23T14:15:44.607Z,4.76
2022-11-23T14:18:03.495Z,5.79
2022-11-23T14:20:25.421Z,6.73
2022-11-23T14:22:54.538Z,7.48
2022-11-23T14:25:09.651Z,7.42
2022-11-23T14:27:47.867Z,6.27
2022-11-23T14:30:15.110Z,4.98
2022-11-23T14:33:03.807Z,4.83
2022-11-23T14:35:13.475Z,5.89
2022-11-23T14:37:25.192Z,6.35
2022-11-23T14:39:47.430Z,6.76
2022-11-23T14:41:53.657Z,6.84
2022-11-23T14:43:57.990Z,6.86
2022-11-23T14:46:03.218Z,7.12
2022-11-23T14:48:22.936Z,7.88
2022-11-23T14:50:28.770Z,7.58
2022-11-23T14:52:34.970Z,6.37
2022-11-23T14:54:39.194Z,5.29
2022-11-23T14:56:46.294Z,4.68
2022-11-23T14:58:50.595Z,5.68
2022-11-23T15:00:59.261Z,6.83
2022-11-23T15:03:42.434Z,7.37
2022-11-23T15:05:39.992Z,6.62
2022-11-23T15:07:53.807Z,5.51
2022-11-23T15:10:20.094Z,5.03
2022-11-23T15:12:48.103Z,6.04
2022-11-23T15:14:54.138Z,6.75
2022-11-23T15:16:57.079Z,7.13
2022-11-23T15:19:00.042Z,7.22
2022-11-23T15:21:07.995Z,6.49
2022-11-23T15:23:27.001Z,5.42
2022-11-23T15:25:30.253Z,4.69
2022-11-23T15:27:33.114Z,5.58
2022-11-23T15:29:39.206Z,7.12
2022-11-23T15:32:00.455Z,8.09
2022-11-23T15:34:17.092Z,7.74
2022-11-23T15:36:29.955Z,6.39
2022-11-23T15:38:32.836Z,5.21
2022-11-23T15:40:37.573Z,4.63
2022-11-23T15:42:41.079Z,5.10
2022-11-23T15:44:48.902Z,5.89
2022-11-23T15:47:03.452Z,6.82
2022-11-23T15:49:06.514Z,7.50
2022-11-23T15:51:25.735Z,7.00
2022-11-23T15:53:31.968Z,5.71
2022-11-23T15:55:35.029Z,5.32
2022-11-23T15:57:39.804Z,5.60
2022-11-23T15:59:46.078Z,6.03
2022-11-23T16:01:49.120Z,6.00
2022-11-23T16:03:56.816Z,6.02
2022-11-23T16:06:15.636Z,6.39
2022-11-23T16:08:25.573Z,7.44
2022-11-23T16:10:28.382Z,8.15
2022-11-23T16:12:33.957Z,7.19
2022-11-23T16:14:37.182Z,5.88
2022-11-23T16:16:45.544Z,4.98
2022-11-23T16:18:52.425Z,5.08
2022-11-23T16:20:59.831Z,6.24
2022-11-23T16:23:02.743Z,7.51
2022-11-23T16:25:35.417Z,8.45
2022-11-23T16:27:38.566Z,8.28
2022-11-23T16:29:41.903Z,7.06
2022-11-23T16:32:00.170Z,5.84
2022-11-23T16:34:03.668Z,5.20
2022-11-23T16:36:08.000Z,6.34
2022-11-23T16:38:12.703Z,7.76
2022-11-23T16:40:15.862Z,8.21
2022-11-23T16:42:18.693Z,7.16
2022-11-23T16:44:21.493Z,5.97
2022-11-23T16:46:24.604Z,5.07
2022-11-23T16:48:27.413Z,4.79
2022-11-23T16:50:32.947Z,5.56
2022-11-23T16:52:39.300Z,6.76
2022-11-23T16:54:42.373Z,7.51
2022-11-23T16:56:45.348Z,7.95
2022-11-23T16:58:48.825Z,7.10
2022-11-23T17:00:52.486Z,5.74
2022-11-23T17:02:55.339Z,4.96
2022-11-23T17:04:58.251Z,5.27
2022-11-23T17:07:01.090Z,5.58
2022-11-23T17:09:08.076Z,5.84
2022-11-23T17:11:20.372Z,6.57
2022-11-23T17:13:27.959Z,7.53
2022-11-23T17:15:31.147Z,7.47
2022-11-23T17:17:34.180Z,6.38
2022-11-23T17:19:36.993Z,5.30
2022-11-23T17:21:39.851Z,4.67
2022-11-23T17:23:44.213Z,5.14
2022-11-23T17:25:47.330Z,5.87
2022-11-23T17:27:50.123Z,6.35
2022-11-23T17:30:01.625Z,6.66
2022-11-23T17:32:06.623Z,7.03
2022-11-23T17:34:10.204Z,7.54
2022-11-23T17:36:13.136Z,7.76
2022-11-23T17:38:23.536Z,6.91
2022-11-23T17:40:27.603Z,5.77
2022-11-23T17:42:30.762Z,5.03
2022-11-23T17:44:33.734Z,5.59
2022-11-23T17:46:36.883Z,6.64
2022-11-23T17:48:39.739Z,7.17
2022-11-23T17:50:42.522Z,7.45
2022-11-23T17:52:46.449Z,7.52
2022-11-23T17:54:49.668Z,6.44
2022-11-23T17:56:52.739Z,5.34
2022-11-23T17:58:55.551Z,4.56
2022-11-23T18:00:58.387Z,4.84
2022-11-23T18:03:01.401Z,5.36
2022-11-23T18:05:04.548Z,5.68
2022-11-23T18:07:07.648Z,6.58
2022-11-23T18:09:12.116Z,8.10
2022-11-23T18:11:15.545Z,8.03
2022-11-23T18:13:18.361Z,6.70
2022-11-23T18:15:21.294Z,5.47
2022-11-23T18:17:24.249Z,4.88
2022-11-23T18:19:27.365Z,5.56
2022-11-23T18:21:30.269Z,6.99
2022-11-23T18:23:34.037Z,8.22
2022-11-23T18:25:36.926Z,7.50
2022-11-23T18:27:39.709Z,6.18
2022-11-23T18:29:42.457Z,5.12
2022-11-23T18:31:45.223Z,5.11
2022-11-23T18:33:48.002Z,6.22
2022-11-23T18:35:51.142Z,7.70
2022-11-23T18:37:54.685Z,7.86
2022-11-23T18:39:57.846Z,6.66
2022-11-23T18:42:05.530Z,5.42
2022-11-23T18:44:08.796Z,4.75
2022-11-23T18:46:19.393Z,5.52
2022-11-23T18:48:22.884Z,6.80
2022-11-23T18:50:25.646Z,7.25
2022-11-23T18:52:28.512Z,7.66
2022-11-23T18:54:31.425Z,6.90
2022-11-23T18:56:34.260Z,5.78
2022-11-23T18:58:39.539Z,5.09
2022-11-23T19:00:42.418Z,5.84
2022-11-23T19:02:51.456Z,6.79
2022-11-23T19:04:54.357Z,7.88
2022-11-23T19:06:57.536Z,8.29
2022-11-23T19:09:01.922Z,7.48
2022-11-23T19:11:12.805Z,6.13
2022-11-23T19:13:15.709Z,5.09
2022-11-23T19:15:20.060Z,4.97
2022-11-23T19:17:22.986Z,5.70
2022-11-23T19:19:25.917Z,6.84
2022-11-23T19:21:31.140Z,7.53
2022-11-23T19:23:33.999Z,7.87
2022-11-23T19:25:36.767Z,7.31
2022-11-23T19:27:40.506Z,6.16
2022-11-23T19:29:43.273Z,5.19
2022-11-23T19:31:46.153Z,5.13
2022-11-23T19:33:50.436Z,6.36
2022-11-23T19:35:53.285Z,7.57
2022-11-23T19:37:56.068Z,8.04
2022-11-23T19:39:58.883Z,7.24
2022-11-23T19:42:01.950Z,6.08
2022-11-23T19:44:05.024Z,5.57
2022-11-23T19:46:11.472Z,6.74
2022-11-23T19:48:14.883Z,8.03
2022-11-23T19:50:18.056Z,8.41
2022-11-23T19:52:21.076Z,7.38
2022-11-23T19:54:24.086Z,6.08
2022-11-23T19:56:31.234Z,5.05
2022-11-23T19:58:34.802Z,4.82
2022-11-23T20:00:39.845Z,4.83
2022-11-23T20:02:42.792Z,4.77
2022-11-23T20:04:47.621Z,4.67
2022-11-23T20:06:50.465Z,4.57
2022-11-23T20:09:01.213Z,4.71
2022-11-23T20:11:08.560Z,5.94
2022-11-23T20:13:11.427Z,7.27
2022-11-23T20:15:14.206Z,8.18
2022-11-23T20:17:17.172Z,8.35
2022-11-23T20:19:19.978Z,7.26
2022-11-23T20:21:23.188Z,6.03
2022-11-23T20:23:26.396Z,5.38
2022-11-23T20:25:29.372Z,6.30
2022-11-23T20:27:32.522Z,7.39
2022-11-23T20:29:35.655Z,8.34
2022-11-23T20:31:39.339Z,8.42
2022-11-23T20:33:43.024Z,7.24
2022-11-23T20:35:47.818Z,5.92
2022-11-23T20:37:51.113Z,5.20
2022-11-23T20:39:54.050Z,5.93
2022-11-23T20:41:58.664Z,6.94
2022-11-23T20:44:04.638Z,8.02
2022-11-23T20:46:07.504Z,8.39
2022-11-23T20:48:10.804Z,7.36
2022-11-23T20:50:13.697Z,6.10
2022-11-23T20:55:23.110Z,6.32
2022-11-23T20:57:26.237Z,7.63
2022-11-23T20:59:29.491Z,8.57
2022-11-23T21:01:32.592Z,8.61
2022-11-23T21:03:36.508Z,7.34
2022-11-23T21:05:39.880Z,6.19
2022-11-23T21:07:42.111Z,5.27
2022-11-23T21:09:45.967Z,4.95
2022-11-23T21:12:06.345Z,5.01
2022-11-23T21:14:18.144Z,5.00
2022-11-23T21:16:21.996Z,5.71
2022-11-23T21:20:14.919Z,7.45
2022-11-23T21:22:18.815Z,7.77
2022-11-23T21:24:21.797Z,8.10
2022-11-23T21:26:24.916Z,8.03
2022-11-23T21:28:30.175Z,6.99
2022-11-23T21:30:33.516Z,5.96
2022-11-23T21:32:36.351Z,5.31
2022-11-23T21:34:39.191Z,5.98
2022-11-23T21:36:42.800Z,7.05
2022-11-23T21:38:45.679Z,7.64
2022-11-23T21:40:48.512Z,8.02
2022-11-23T21:42:51.999Z,8.18
2022-11-23T21:44:54.976Z,7.27
2022-11-23T21:46:58.045Z,6.16
2022-11-23T21:49:01.421Z,5.25
2022-11-23T21:51:07.421Z,5.22
2022-11-23T21:53:10.260Z,6.44
2022-11-23T21:55:13.082Z,7.40
2022-11-23T21:57:16.096Z,8.09
2022-11-23T21:59:18.936Z,8.22
2022-11-23T22:01:30.317Z,7.24
2022-11-23T22:03:41.656Z,6.08
2022-11-23T22:05:56.073Z,5.49
2022-11-23T22:08:27.592Z,6.42
2022-11-23T22:10:21.686Z,7.21
2022-11-23T22:12:24.569Z,7.73
2022-11-23T22:14:27.394Z,8.37
2022-11-23T22:16:33.791Z,7.47
2022-11-23T22:18:36.687Z,6.25
2022-11-23T22:20:39.676Z,5.30
2022-11-23T22:22:42.450Z,5.02
2022-11-23T22:24:45.396Z,4.99
2022-11-23T22:26:48.476Z,4.85
2022-11-23T22:28:51.979Z,4.66
2022-11-23T22:30:54.807Z,4.52
2022-11-23T22:32:58.397Z,4.71
2022-11-23T22:35:01.185Z,5.55
2022-11-23T22:37:10.073Z,5.91
2022-11-23T22:39:13.747Z,6.01
2022-11-23T22:41:17.651Z,6.55
2022-11-23T22:43:20.634Z,7.55
2022-11-23T22:45:23.516Z,8.32
2022-11-23T22:47:26.413Z,7.60
2022-11-23T22:49:29.233Z,6.43
2022-11-23T22:51:32.472Z,5.48
2022-11-23T22:53:44.021Z,5.05
2022-11-23T22:55:47.556Z,4.91
2022-11-23T22:58:24.026Z,4.88
2022-11-23T23:13:24.017Z,7.14
2022-11-23T23:15:28.184Z,7.71
2022-11-23T23:17:32.475Z,7.80
2022-11-23T23:19:37.425Z,6.98
2022-11-23T23:21:42.626Z,6.02
2022-11-23T23:23:48.937Z,5.49
2022-11-23T23:25:55.203Z,6.16
2022-11-23T23:28:00.385Z,7.40
2022-11-23T23:30:06.233Z,8.39
2022-11-23T23:32:12.715Z,8.50
2022-11-23T23:34:17.918Z,7.38
2022-11-23T23:36:26.484Z,6.30
2022-11-23T23:38:32.081Z,5.53
2022-11-23T23:40:36.934Z,6.08
2022-11-23T23:42:44.803Z,7.11
2022-11-23T23:44:49.938Z,7.58
2022-11-23T23:46:56.310Z,7.79
2022-11-23T23:49:01.648Z,7.20
2022-11-23T23:51:08.684Z,6.16
2022-11-23T23:53:14.156Z,5.58
2022-11-23T23:55:23.241Z,6.68
2022-11-23T23:57:41.292Z,8.21
2022-11-23T23:59:58.818Z,8.55
